sensor_id;sensor_type;location;lat;lon;timestamp;pressure;altitude;pressure_sealevel;temperature;humidity
26178;BME280;13924;47.670;10.310;2023-04-25T00:00:41;92900;;;6.3;100.0
26178;BME280;13924;47.670;10.310;2023-04-25T00:15:42;92840;;;6.3;100.0
26178;BME280;13924;47.670;10.310;2023-04-25T00:30:44;92840;;;6.3;100.0
26178;BME280;13924;47.670;10.310;2023-04-25T00:45:43;92830;;;6.3;100.0
26178;BME280;13924;47.670;10.310;2023-04-25T01:00:45;92840;;;6.2;100.0
26178;BME280;13924;47.670;10.310;2023-04-25T01:01:27;92840;;;6.2;100.0
26178;BME280;13924;47.670;10.310;2023-04-25T01:15:44;92880;;;6.2;100.0
26178;BME280;13924;47.670;10.310;2023-04-25T01:30:46;92870;;;6.4;100.0
26178;BME280;13924;47.670;10.310;2023-04-25T01:45:46;92830;;;6.0;100.0
26178;BME280;13924;47.670;10.310;2023-04-25T02:00:46;92770;;;6.1;100.0
26178;BME280;13924;47.670;10.310;2023-04-25T02:15:46;92720;;;6.0;100.0
26178;BME280;13924;47.670;10.310;2023-04-25T02:30:47;92690;;;6.2;100.0
26178;BME280;13924;47.670;10.310;2023-04-25T02:45:48;92700;;;6.1;100.0
26178;BME280;13924;47.670;10.310;2023-04-25T03:00:49;92650;;;6.2;100.0
26178;BME280;13924;47.670;10.310;2023-04-25T03:15:50;92640;;;6.3;100.0
26178;BME280;13924;47.670;10.310;2023-04-25T03:30:50;92710;;;6.2;100.0
26178;BME280;13924;47.670;10.310;2023-04-25T03:45:51;92680;;;6.0;100.0
26178;BME280;13924;47.670;10.310;2023-04-25T04:00:52;92640;;;6.2;100.0
26178;BME280;13924;47.670;10.310;2023-04-25T04:15:20;92680;;;6.4;100.0
26178;BME280;13924;47.670;10.310;2023-04-25T04:30:22;92670;;;6.5;100.0
26178;BME280;13924;47.670;10.310;2023-04-25T04:45:21;92690;;;6.4;100.0
26178;BME280;13924;47.670;10.310;2023-04-25T05:00:24;92700;;;6.4;100.0
26178;BME280;13924;47.670;10.310;2023-04-25T05:15:24;92680;;;6.4;100.0
26178;BME280;13924;47.670;10.310;2023-04-25T05:30:25;92670;;;6.5;100.0
26178;BME280;13924;47.670;10.310;2023-04-25T05:45:27;92670;;;6.6;100.0
26178;BME280;13924;47.670;10.310;2023-04-25T06:00:26;92660;;;6.7;100.0
26178;BME280;13924;47.670;10.310;2023-04-25T06:15:27;92660;;;6.8;100.0
26178;BME280;13924;47.670;10.310;2023-04-25T06:30:27;92630;;;7.0;100.0
26178;BME280;13924;47.670;10.310;2023-04-25T06:45:34;92600;;;7.2;100.0
26178;BME280;13924;47.670;10.310;2023-04-25T07:00:30;92580;;;7.5;100.0
26178;BME280;13924;47.670;10.310;2023-04-25T07:15:31;92570;;;7.7;100.0
26178;BME280;13924;47.670;10.310;2023-04-25T07:30:32;92540;;;8.1;100.0
26178;BME280;13924;47.670;10.310;2023-04-25T07:45:32;92540;;;8.5;100.0
26178;BME280;13924;47.670;10.310;2023-04-25T08:00:34;92530;;;8.8;100.0
26178;BME280;13924;47.670;10.310;2023-04-25T08:15:35;92530;;;8.6;100.0
26178;BME280;13924;47.670;10.310;2023-04-25T08:30:36;92560;;;7.8;100.0
26178;BME280;13924;47.670;10.310;2023-04-25T08:45:36;92600;;;7.4;100.0
26178;BME280;13924;47.670;10.310;2023-04-25T09:00:36;92590;;;7.9;100.0
26178;BME280;13924;47.670;10.310;2023-04-25T09:15:48;92600;;;8.7;100.0
26178;BME280;13924;47.670;10.310;2023-04-25T09:30:37;92840;;;6.0;100.0
26178;BME280;13924;47.670;10.310;2023-04-25T09:45:41;92890;;;5.8;100.0
26178;BME280;13924;47.670;10.310;2023-04-25T10:00:41;93060;;;5.2;100.0
26178;BME280;13924;47.670;10.310;2023-04-25T10:15:48;93060;;;5.2;100.0
26178;BME280;13924;47.670;10.310;2023-04-25T10:30:56;92920;;;6.0;100.0
26178;BME280;13924;47.670;10.310;2023-04-25T10:45:51;92880;;;6.4;100.0
26178;BME280;13924;47.670;10.310;2023-04-25T11:00:42;92850;;;6.6;100.0
26178;BME280;13924;47.670;10.310;2023-04-25T11:15:42;92960;;;6.2;100.0
26178;BME280;13924;47.670;10.310;2023-04-25T11:30:48;93080;;;6.0;100.0
26178;BME280;13924;47.670;10.310;2023-04-25T11:45:46;92970;;;6.4;100.0
26178;BME280;13924;47.670;10.310;2023-04-25T12:00:43;92910;;;6.2;100.0
26178;BME280;13924;47.670;10.310;2023-04-25T12:15:52;92970;;;6.6;100.0
26178;BME280;13924;47.670;10.310;2023-04-25T12:30:53;92880;;;6.7;100.0
26178;BME280;13924;47.670;10.310;2023-04-25T12:45:53;92950;;;6.3;100.0
26178;BME280;13924;47.670;10.310;2023-04-25T13:00:53;92940;;;7.2;100.0
26178;BME280;13924;47.670;10.310;2023-04-25T13:15:52;92970;;;7.0;100.0
26178;BME280;13924;47.670;10.310;2023-04-25T13:30:53;93010;;;6.7;100.0
26178;BME280;13924;47.670;10.310;2023-04-25T13:45:52;93110;;;6.0;100.0
26178;BME280;13924;47.670;10.310;2023-04-25T14:00:54;93220;;;5.3;100.0
26178;BME280;13924;47.670;10.310;2023-04-25T14:15:53;93280;;;4.8;100.0
26178;BME280;13924;47.670;10.310;2023-04-25T14:30:55;93310;;;6.1;100.0
26178;BME280;13924;47.670;10.310;2023-04-25T14:45:54;93270;;;6.1;100.0
26178;BME280;13924;47.670;10.310;2023-04-25T15:00:55;93300;;;7.0;100.0
26178;BME280;13924;47.670;10.310;2023-04-25T15:15:53;93040;;;7.1;100.0
26178;BME280;13924;47.670;10.310;2023-04-25T15:30:55;93160;;;6.7;100.0
26178;BME280;13924;47.670;10.310;2023-04-25T15:45:54;93220;;;6.7;100.0
26178;BME280;13924;47.670;10.310;2023-04-25T16:00:57;93170;;;6.1;100.0
26178;BME280;13924;47.670;10.310;2023-04-25T16:15:55;93260;;;5.2;100.0
26178;BME280;13924;47.670;10.310;2023-04-25T16:30:56;93350;;;5.0;100.0
26178;BME280;13924;47.670;10.310;2023-04-25T16:45:57;93360;;;4.9;100.0
26178;BME280;13924;47.670;10.310;2023-04-25T17:00:57;93460;;;4.2;100.0
26178;BME280;13924;47.670;10.310;2023-04-25T17:15:57;93510;;;4.2;100.0
26178;BME280;13924;47.670;10.310;2023-04-25T17:30:58;93540;;;4.4;100.0
26178;BME280;13924;47.670;10.310;2023-04-25T17:45:58;93550;;;4.4;100.0
26178;BME280;13924;47.670;10.310;2023-04-25T18:01:00;93600;;;4.1;100.0
26178;BME280;13924;47.670;10.310;2023-04-25T18:16:00;93620;;;4.1;100.0
26178;BME280;13924;47.670;10.310;2023-04-25T18:31:01;93640;;;4.1;100.0
26178;BME280;13924;47.670;10.310;2023-04-25T18:46:01;93670;;;4.0;100.0
26178;BME280;13924;47.670;10.310;2023-04-25T19:01:01;93690;;;4.0;100.0
26178;BME280;13924;47.670;10.310;2023-04-25T19:16:02;93720;;;3.8;100.0
26178;BME280;13924;47.670;10.310;2023-04-25T19:31:04;93740;;;3.6;100.0
26178;BME280;13924;47.670;10.310;2023-04-25T19:46:03;93730;;;3.5;100.0
26178;BME280;13924;47.670;10.310;2023-04-25T20:01:04;93740;;;3.6;100.0
26178;BME280;13924;47.670;10.310;2023-04-25T20:16:09;93740;;;3.2;100.0
26178;BME280;13924;47.670;10.310;2023-04-25T20:31:05;93750;;;3.1;100.0
26178;BME280;13924;47.670;10.310;2023-04-25T20:46:06;93740;;;3.1;100.0
26178;BME280;13924;47.670;10.310;2023-04-25T21:01:07;93750;;;3.0;100.0
26178;BME280;13924;47.670;10.310;2023-04-25T21:16:07;93740;;;3.0;100.0
26178;BME280;13924;47.670;10.310;2023-04-25T21:31:08;93740;;;3.2;100.0
26178;BME280;13924;47.670;10.310;2023-04-25T21:46:09;93750;;;3.3;100.0
26178;BME280;13924;47.670;10.310;2023-04-25T22:00:42;93770;;;3.1;100.0
26178;BME280;13924;47.670;10.310;2023-04-25T22:15:35;93760;;;3.1;100.0
26178;BME280;13924;47.670;10.310;2023-04-25T22:30:36;93760;;;3.1;100.0
26178;BME280;13924;47.670;10.310;2023-04-25T22:45:36;93770;;;3.2;100.0
26178;BME280;13924;47.670;10.310;2023-04-25T23:00:37;93780;;;3.2;100.0
26178;BME280;13924;47.670;10.310;2023-04-25T23:15:38;93790;;;3.2;100.0
26178;BME280;13924;47.670;10.310;2023-04-25T23:30:38;93780;;;3.2;100.0
26178;BME280;13924;47.670;10.310;2023-04-25T23:45:38;93790;;;3.2;100.0
